sensor_id;sensor_type;location;lat;lon;timestamp;temperature;humidity
1694;DHT22;844;47.058;15.472;2022-08-19T13:53:24;29.60;99.90
1694;DHT22;844;47.058;15.472;2022-08-19T13:55:57;29.70;99.90
1694;DHT22;844;47.058;15.472;2022-08-19T13:58:28;29.70;99.90
1694;DHT22;844;47.058;15.472;2022-08-19T14:00:59;29.80;99.90
1694;DHT22;844;47.058;15.472;2022-08-19T14:03:28;30.00;99.90
1694;DHT22;844;47.058;15.472;2022-08-19T14:05:57;30.10;99.90
1694;DHT22;844;47.058;15.472;2022-08-19T14:08:27;30.40;99.90
1694;DHT22;844;47.058;15.472;2022-08-19T14:10:59;30.60;99.90
1694;DHT22;844;47.058;15.472;2022-08-19T14:13:34;30.70;99.90
1694;DHT22;844;47.058;15.472;2022-08-19T14:16:07;30.60;99.90
1694;DHT22;844;47.058;15.472;2022-08-19T14:18:38;30.70;99.90
1694;DHT22;844;47.058;15.472;2022-08-19T14:21:14;30.90;99.90
1694;DHT22;844;47.058;15.472;2022-08-19T14:23:44;31.10;99.90
1694;DHT22;844;47.058;15.472;2022-08-19T14:26:15;31.10;99.90
1694;DHT22;844;47.058;15.472;2022-08-19T14:28:49;31.10;99.90
1694;DHT22;844;47.058;15.472;2022-08-19T14:31:21;31.00;99.90
1694;DHT22;844;47.058;15.472;2022-08-19T14:33:56;31.00;99.90
1694;DHT22;844;47.058;15.472;2022-08-19T14:36:25;31.10;99.90
1694;DHT22;844;47.058;15.472;2022-08-19T14:38:54;31.10;99.90
1694;DHT22;844;47.058;15.472;2022-08-19T14:41:24;31.00;99.90
1694;DHT22;844;47.058;15.472;2022-08-19T14:43:56;31.00;99.90
1694;DHT22;844;47.058;15.472;2022-08-19T14:46:28;31.00;99.90
1694;DHT22;844;47.058;15.472;2022-08-19T14:48:57;30.70;99.90
1694;DHT22;844;47.058;15.472;2022-08-19T14:51:27;30.60;99.90
1694;DHT22;844;47.058;15.472;2022-08-19T14:53:56;30.50;99.90
1694;DHT22;844;47.058;15.472;2022-08-19T14:56:28;30.40;99.90
1694;DHT22;844;47.058;15.472;2022-08-19T14:58:59;30.40;99.90
1694;DHT22;844;47.058;15.472;2022-08-19T15:01:28;30.30;99.90
1694;DHT22;844;47.058;15.472;2022-08-19T15:03:58;30.40;99.90
1694;DHT22;844;47.058;15.472;2022-08-19T15:06:29;30.40;99.90
1694;DHT22;844;47.058;15.472;2022-08-19T15:08:59;30.20;99.90
1694;DHT22;844;47.058;15.472;2022-08-19T15:11:31;30.30;99.90
1694;DHT22;844;47.058;15.472;2022-08-19T15:14:04;30.20;99.90
1694;DHT22;844;47.058;15.472;2022-08-19T15:16:34;30.30;99.90
1694;DHT22;844;47.058;15.472;2022-08-19T15:19:06;30.10;99.90
1694;DHT22;844;47.058;15.472;2022-08-19T15:21:36;29.80;99.90
1694;DHT22;844;47.058;15.472;2022-08-19T15:24:05;29.80;99.90
1694;DHT22;844;47.058;15.472;2022-08-19T15:26:35;29.90;99.90
1694;DHT22;844;47.058;15.472;2022-08-19T15:29:05;29.60;99.90
1694;DHT22;844;47.058;15.472;2022-08-19T15:31:38;29.50;99.90
1694;DHT22;844;47.058;15.472;2022-08-19T15:34:09;29.40;99.90
1694;DHT22;844;47.058;15.472;2022-08-19T15:36:38;29.20;99.90
1694;DHT22;844;47.058;15.472;2022-08-19T15:39:08;29.10;99.90
1694;DHT22;844;47.058;15.472;2022-08-19T15:41:37;28.90;99.90
1694;DHT22;844;47.058;15.472;2022-08-19T15:44:12;28.70;99.90
1694;DHT22;844;47.058;15.472;2022-08-19T15:46:46;28.60;99.90
1694;DHT22;844;47.058;15.472;2022-08-19T15:49:19;28.50;99.90
1694;DHT22;844;47.058;15.472;2022-08-19T15:51:49;28.30;99.90
1694;DHT22;844;47.058;15.472;2022-08-19T15:54:24;28.30;99.90
1694;DHT22;844;47.058;15.472;2022-08-19T15:56:55;28.20;99.90
1694;DHT22;844;47.058;15.472;2022-08-19T15:59:43;28.20;99.90
1694;DHT22;844;47.058;15.472;2022-08-19T16:02:31;28.10;99.90
1694;DHT22;844;47.058;15.472;2022-08-19T16:05:23;28.00;99.90
1694;DHT22;844;47.058;15.472;2022-08-19T16:08:11;27.90;99.90
1694;DHT22;844;47.058;15.472;2022-08-19T16:10:42;27.80;99.90
1694;DHT22;844;47.058;15.472;2022-08-19T16:13:11;27.80;99.90
1694;DHT22;844;47.058;15.472;2022-08-19T16:15:42;27.70;99.90
1694;DHT22;844;47.058;15.472;2022-08-19T16:18:11;27.70;99.90
1694;DHT22;844;47.058;15.472;2022-08-19T16:20:40;27.70;99.90
1694;DHT22;844;47.058;15.472;2022-08-19T16:23:10;27.60;99.90
1694;DHT22;844;47.058;15.472;2022-08-19T16:25:39;27.50;99.90
1694;DHT22;844;47.058;15.472;2022-08-19T16:28:10;27.40;99.90
1694;DHT22;844;47.058;15.472;2022-08-19T16:30:42;27.40;99.90
1694;DHT22;844;47.058;15.472;2022-08-19T16:33:14;27.30;99.90
1694;DHT22;844;47.058;15.472;2022-08-19T16:35:49;27.30;99.90
1694;DHT22;844;47.058;15.472;2022-08-19T16:38:34;27.30;99.90
1694;DHT22;844;47.058;15.472;2022-08-19T16:41:07;27.20;99.90
1694;DHT22;844;47.058;15.472;2022-08-19T16:43:44;27.20;99.90
1694;DHT22;844;47.058;15.472;2022-08-19T16:46:17;27.10;99.90
1694;DHT22;844;47.058;15.472;2022-08-19T16:48:49;27.00;99.90
1694;DHT22;844;47.058;15.472;2022-08-19T16:51:18;26.90;99.90
1694;DHT22;844;47.058;15.472;2022-08-19T16:53:49;26.90;99.90
1694;DHT22;844;47.058;15.472;2022-08-19T16:56:20;26.80;99.90
1694;DHT22;844;47.058;15.472;2022-08-19T16:58:51;26.80;99.90
1694;DHT22;844;47.058;15.472;2022-08-19T17:01:22;26.70;99.90
1694;DHT22;844;47.058;15.472;2022-08-19T17:03:53;26.60;99.90
1694;DHT22;844;47.058;15.472;2022-08-19T17:06:24;26.50;99.90
1694;DHT22;844;47.058;15.472;2022-08-19T17:08:56;26.50;99.90
1694;DHT22;844;47.058;15.472;2022-08-19T17:11:28;26.50;99.90
1694;DHT22;844;47.058;15.472;2022-08-19T17:14:04;26.40;99.90
1694;DHT22;844;47.058;15.472;2022-08-19T17:16:35;26.20;99.90
1694;DHT22;844;47.058;15.472;2022-08-19T17:19:06;26.00;99.90
1694;DHT22;844;47.058;15.472;2022-08-19T17:21:37;25.90;99.90
1694;DHT22;844;47.058;15.472;2022-08-19T17:24:07;25.80;99.90
1694;DHT22;844;47.058;15.472;2022-08-19T17:26:36;25.70;99.90
1694;DHT22;844;47.058;15.472;2022-08-19T17:29:06;25.70;99.90
1694;DHT22;844;47.058;15.472;2022-08-19T17:31:37;25.60;99.90
1694;DHT22;844;47.058;15.472;2022-08-19T17:34:06;25.50;99.90
1694;DHT22;844;47.058;15.472;2022-08-19T17:36:35;25.40;99.90
1694;DHT22;844;47.058;15.472;2022-08-19T17:39:04;25.30;99.90
1694;DHT22;844;47.058;15.472;2022-08-19T17:41:34;25.20;99.90
1694;DHT22;844;47.058;15.472;2022-08-19T17:44:03;25.00;99.90
1694;DHT22;844;47.058;15.472;2022-08-19T17:46:33;25.00;99.90
1694;DHT22;844;47.058;15.472;2022-08-19T17:49:06;24.90;99.90
1694;DHT22;844;47.058;15.472;2022-08-19T17:51:46;24.90;99.90
1694;DHT22;844;47.058;15.472;2022-08-19T17:54:18;24.80;99.90
1694;DHT22;844;47.058;15.472;2022-08-19T17:56:47;24.80;99.90
1694;DHT22;844;47.058;15.472;2022-08-19T17:59:17;24.70;99.90
1694;DHT22;844;47.058;15.472;2022-08-19T18:01:50;24.70;99.90
1694;DHT22;844;47.058;15.472;2022-08-19T18:04:25;24.60;99.90
1694;DHT22;844;47.058;15.472;2022-08-19T18:07:00;24.60;99.90
1694;DHT22;844;47.058;15.472;2022-08-19T18:09:33;24.50;99.90
1694;DHT22;844;47.058;15.472;2022-08-19T18:12:19;24.50;99.90
1694;DHT22;844;47.058;15.472;2022-08-19T18:14:52;24.50;99.90
1694;DHT22;844;47.058;15.472;2022-08-19T18:17:21;24.40;99.90
1694;DHT22;844;47.058;15.472;2022-08-19T18:19:56;24.40;99.90
1694;DHT22;844;47.058;15.472;2022-08-19T18:22:28;24.30;99.90
1694;DHT22;844;47.058;15.472;2022-08-19T18:25:01;24.30;99.90
1694;DHT22;844;47.058;15.472;2022-08-19T18:27:41;24.30;99.90
1694;DHT22;844;47.058;15.472;2022-08-19T18:30:15;24.30;99.90
1694;DHT22;844;47.058;15.472;2022-08-19T18:33:25;24.20;99.90
1694;DHT22;844;47.058;15.472;2022-08-19T18:35:57;24.20;99.90
1694;DHT22;844;47.058;15.472;2022-08-19T18:38:37;24.20;99.90
1694;DHT22;844;47.058;15.472;2022-08-19T18:41:24;24.10;99.90
1694;DHT22;844;47.058;15.472;2022-08-19T18:44:10;24.00;99.90
1694;DHT22;844;47.058;15.472;2022-08-19T18:46:56;24.00;99.90
1694;DHT22;844;47.058;15.472;2022-08-19T18:49:43;23.90;99.90
1694;DHT22;844;47.058;15.472;2022-08-19T18:52:13;23.90;99.90
1694;DHT22;844;47.058;15.472;2022-08-19T18:54:43;23.90;99.90
1694;DHT22;844;47.058;15.472;2022-08-19T18:57:14;23.90;99.90
1694;DHT22;844;47.058;15.472;2022-08-19T18:59:45;23.90;99.90
1694;DHT22;844;47.058;15.472;2022-08-19T19:02:15;23.90;99.90
1694;DHT22;844;47.058;15.472;2022-08-19T19:05:04;23.90;99.90
1694;DHT22;844;47.058;15.472;2022-08-19T19:07:35;23.90;99.90
1694;DHT22;844;47.058;15.472;2022-08-19T19:10:07;23.80;99.90
1694;DHT22;844;47.058;15.472;2022-08-19T19:12:41;23.70;99.90
1694;DHT22;844;47.058;15.472;2022-08-19T19:15:12;23.70;99.90
1694;DHT22;844;47.058;15.472;2022-08-19T19:17:41;23.80;99.90
1694;DHT22;844;47.058;15.472;2022-08-19T19:20:11;23.80;99.90
1694;DHT22;844;47.058;15.472;2022-08-19T19:22:42;23.70;99.90
1694;DHT22;844;47.058;15.472;2022-08-19T19:25:11;23.70;99.90
1694;DHT22;844;47.058;15.472;2022-08-19T19:30:29;23.60;99.90
1694;DHT22;844;47.058;15.472;2022-08-19T19:32:59;23.60;99.90
1694;DHT22;844;47.058;15.472;2022-08-19T19:35:28;23.50;99.90
1694;DHT22;844;47.058;15.472;2022-08-19T19:38:00;23.50;99.90
1694;DHT22;844;47.058;15.472;2022-08-19T19:40:29;23.40;99.90
1694;DHT22;844;47.058;15.472;2022-08-19T19:42:58;23.40;99.90
1694;DHT22;844;47.058;15.472;2022-08-19T19:45:31;23.30;99.90
1694;DHT22;844;47.058;15.472;2022-08-19T19:48:00;23.20;99.90
1694;DHT22;844;47.058;15.472;2022-08-19T19:50:29;23.20;99.90
1694;DHT22;844;47.058;15.472;2022-08-19T19:53:00;23.10;99.90
1694;DHT22;844;47.058;15.472;2022-08-19T19:55:29;23.10;99.90
1694;DHT22;844;47.058;15.472;2022-08-19T19:57:58;23.00;99.90
1694;DHT22;844;47.058;15.472;2022-08-19T20:00:27;23.00;99.90
1694;DHT22;844;47.058;15.472;2022-08-19T20:02:57;23.00;99.90
1694;DHT22;844;47.058;15.472;2022-08-19T20:05:27;23.00;99.90
1694;DHT22;844;47.058;15.472;2022-08-19T20:07:56;23.00;99.90
1694;DHT22;844;47.058;15.472;2022-08-19T20:10:46;23.00;99.90
1694;DHT22;844;47.058;15.472;2022-08-19T20:13:15;23.00;99.90
1694;DHT22;844;47.058;15.472;2022-08-19T20:15:44;23.00;99.90
1694;DHT22;844;47.058;15.472;2022-08-19T20:18:13;23.00;99.90
1694;DHT22;844;47.058;15.472;2022-08-19T20:20:43;23.00;99.90
1694;DHT22;844;47.058;15.472;2022-08-19T20:23:12;23.00;99.90
1694;DHT22;844;47.058;15.472;2022-08-19T20:25:41;23.00;99.90
1694;DHT22;844;47.058;15.472;2022-08-19T20:28:12;22.90;99.90
1694;DHT22;844;47.058;15.472;2022-08-19T20:30:43;22.90;99.90
1694;DHT22;844;47.058;15.472;2022-08-19T20:33:12;22.90;99.90
1694;DHT22;844;47.058;15.472;2022-08-19T20:35:42;22.90;99.90
1694;DHT22;844;47.058;15.472;2022-08-19T20:38:12;22.90;99.90
1694;DHT22;844;47.058;15.472;2022-08-19T20:40:42;22.90;99.90
1694;DHT22;844;47.058;15.472;2022-08-19T20:43:12;22.90;99.90
1694;DHT22;844;47.058;15.472;2022-08-19T20:45:42;22.90;99.90
1694;DHT22;844;47.058;15.472;2022-08-19T20:48:11;22.90;99.90
1694;DHT22;844;47.058;15.472;2022-08-19T20:50:39;22.80;99.90
1694;DHT22;844;47.058;15.472;2022-08-19T20:53:10;22.70;99.90
1694;DHT22;844;47.058;15.472;2022-08-19T20:55:42;22.70;99.90
1694;DHT22;844;47.058;15.472;2022-08-19T20:58:15;22.70;99.90
1694;DHT22;844;47.058;15.472;2022-08-19T21:00:47;22.70;99.90
1694;DHT22;844;47.058;15.472;2022-08-19T21:03:18;22.70;99.90
1694;DHT22;844;47.058;15.472;2022-08-19T21:05:49;22.70;99.90
1694;DHT22;844;47.058;15.472;2022-08-19T21:08:18;22.70;99.90
1694;DHT22;844;47.058;15.472;2022-08-19T21:10:49;22.70;99.90
1694;DHT22;844;47.058;15.472;2022-08-19T21:13:21;22.60;99.90
1694;DHT22;844;47.058;15.472;2022-08-19T21:15:51;22.60;99.90
1694;DHT22;844;47.058;15.472;2022-08-19T21:18:24;22.60;99.90
1694;DHT22;844;47.058;15.472;2022-08-19T21:20:54;22.60;99.90
1694;DHT22;844;47.058;15.472;2022-08-19T21:23:27;22.60;99.90
1694;DHT22;844;47.058;15.472;2022-08-19T21:25:58;22.50;99.90
1694;DHT22;844;47.058;15.472;2022-08-19T21:28:47;22.50;99.90
1694;DHT22;844;47.058;15.472;2022-08-19T21:31:16;22.40;99.90
1694;DHT22;844;47.058;15.472;2022-08-19T21:33:45;22.40;99.90
1694;DHT22;844;47.058;15.472;2022-08-19T21:36:14;22.40;99.90
1694;DHT22;844;47.058;15.472;2022-08-19T21:38:44;22.40;99.90
1694;DHT22;844;47.058;15.472;2022-08-19T21:41:13;22.40;99.90
1694;DHT22;844;47.058;15.472;2022-08-19T21:43:42;22.40;99.90
1694;DHT22;844;47.058;15.472;2022-08-19T21:46:12;22.40;99.90
1694;DHT22;844;47.058;15.472;2022-08-19T21:48:43;22.40;99.90
1694;DHT22;844;47.058;15.472;2022-08-19T21:51:12;22.30;99.90
1694;DHT22;844;47.058;15.472;2022-08-19T21:53:43;22.30;99.90
1694;DHT22;844;47.058;15.472;2022-08-19T21:56:12;22.20;99.90
1694;DHT22;844;47.058;15.472;2022-08-19T21:58:41;22.20;99.90
1694;DHT22;844;47.058;15.472;2022-08-19T22:01:12;22.20;99.90
1694;DHT22;844;47.058;15.472;2022-08-19T22:03:42;22.20;99.90
1694;DHT22;844;47.058;15.472;2022-08-19T22:06:11;22.20;99.90
1694;DHT22;844;47.058;15.472;2022-08-19T22:08:40;22.20;99.90
1694;DHT22;844;47.058;15.472;2022-08-19T22:11:11;22.20;99.90
1694;DHT22;844;47.058;15.472;2022-08-19T22:13:40;22.20;99.90
1694;DHT22;844;47.058;15.472;2022-08-19T22:16:09;22.20;99.90
1694;DHT22;844;47.058;15.472;2022-08-19T22:18:42;22.10;99.90
1694;DHT22;844;47.058;15.472;2022-08-19T22:21:12;22.10;99.90
1694;DHT22;844;47.058;15.472;2022-08-19T22:23:49;22.00;99.90
1694;DHT22;844;47.058;15.472;2022-08-19T22:26:18;22.00;99.90
1694;DHT22;844;47.058;15.472;2022-08-19T22:28:47;22.00;99.90
1694;DHT22;844;47.058;15.472;2022-08-19T22:31:17;22.10;99.90
1694;DHT22;844;47.058;15.472;2022-08-19T22:33:47;22.10;99.90
1694;DHT22;844;47.058;15.472;2022-08-19T22:36:19;22.00;99.90
1694;DHT22;844;47.058;15.472;2022-08-19T22:38:48;22.00;99.90
1694;DHT22;844;47.058;15.472;2022-08-19T22:41:17;22.00;99.90
1694;DHT22;844;47.058;15.472;2022-08-19T22:43:46;22.00;99.90
1694;DHT22;844;47.058;15.472;2022-08-19T22:46:17;22.00;99.90
1694;DHT22;844;47.058;15.472;2022-08-19T22:48:48;22.00;99.90
1694;DHT22;844;47.058;15.472;2022-08-19T22:51:27;22.00;99.90
1694;DHT22;844;47.058;15.472;2022-08-19T22:54:14;22.00;99.90
1694;DHT22;844;47.058;15.472;2022-08-19T22:56:46;21.90;99.90
1694;DHT22;844;47.058;15.472;2022-08-19T22:59:17;21.90;99.90
1694;DHT22;844;47.058;15.472;2022-08-19T23:01:46;21.90;99.90
1694;DHT22;844;47.058;15.472;2022-08-19T23:04:17;21.90;99.90
1694;DHT22;844;47.058;15.472;2022-08-19T23:06:46;21.90;99.90
1694;DHT22;844;47.058;15.472;2022-08-19T23:09:18;21.90;99.90
1694;DHT22;844;47.058;15.472;2022-08-19T23:11:49;21.90;99.90
1694;DHT22;844;47.058;15.472;2022-08-19T23:14:18;21.90;99.90
1694;DHT22;844;47.058;15.472;2022-08-19T23:16:47;21.90;99.90
1694;DHT22;844;47.058;15.472;2022-08-19T23:19:20;21.90;99.90
1694;DHT22;844;47.058;15.472;2022-08-19T23:21:49;21.90;99.90
1694;DHT22;844;47.058;15.472;2022-08-19T23:24:18;21.90;99.90
1694;DHT22;844;47.058;15.472;2022-08-19T23:26:47;21.80;99.90
1694;DHT22;844;47.058;15.472;2022-08-19T23:29:34;21.80;99.90
1694;DHT22;844;47.058;15.472;2022-08-19T23:32:21;21.80;99.90
1694;DHT22;844;47.058;15.472;2022-08-19T23:34:54;21.80;99.90
1694;DHT22;844;47.058;15.472;2022-08-19T23:37:25;21.80;99.90
1694;DHT22;844;47.058;15.472;2022-08-19T23:39:54;21.80;99.90
1694;DHT22;844;47.058;15.472;2022-08-19T23:42:23;21.80;99.90
1694;DHT22;844;47.058;15.472;2022-08-19T23:44:59;21.80;99.90
1694;DHT22;844;47.058;15.472;2022-08-19T23:47:30;21.70;99.90
1694;DHT22;844;47.058;15.472;2022-08-19T23:50:02;21.70;99.90
1694;DHT22;844;47.058;15.472;2022-08-19T23:52:42;21.70;99.90
1694;DHT22;844;47.058;15.472;2022-08-19T23:55:17;21.70;99.90
1694;DHT22;844;47.058;15.472;2022-08-19T23:57:48;21.60;99.90
